Hlavní strana
METAR-TAF:

METAR-TAF

Letiště :

Letecká základna

Niederstetten, Německo

zeměpisná šířka: 49-24N, zeměpisná délka: 009-58E, výška: 468 m

Aktuální stav počasí

Zpráva byla vytvořena před 10 minutami, v 10:20 UTC
Jižní vítr 3 kt
Teplota 21°C
Vlhkost vzduchu 35%
Tlak 1015 hPa
Viditelnost 10 km a více
Skoro jasno ve výšce 30000 ft

METAR: ETHN 151020Z 18003KT 9999 FEW300 21/05 Q1015 BLU+BLU+

Čas: 12:30 (10:30 UTC)

Předpověď počasí

Zpráva byla vytvořena před 3 hodinami a 30 minutami, v 07:00 UTC
Předpověď platná od 15 v 08 UTC do 15 v 17 UTC
Jihojihovýchodní vítr 6 kt
Viditelnost 10 km a více
Skoro jasno ve výšce 10000 ft

TAF: ETHN 150700Z 1508/1517 15006KT 9999 NSW FEW100

Stav a předpovědi počasí z více než 4 000 letišť (zprávy METAR a TAF).

Červené a žluté tečky na mapě představují dostupné meteorologické stanice.

Když kurzor umístíte na tečku, zobrazí se název stanice.

Pak kliknutím zobrazíte stav a předpověď počasí.

Chcete-li změnit mapu, kliknutím na zelené tlačítko se znaménkem +mapu přiblížíte, kliknutím na zelené tlačítko se znaménkem – mapu oddálíte a kliknutím na zelené šipky přejdete na sousední mapy.


METAR-TAF: